Time;durP1;ratioP1;P1;durP2;ratioP2;P2;SDS_P1;SDS_P2;PMS_P1;PMS_P2;Temp;Humidity;BMP_temperature;BMP_pressure;BME280_temperature;BME280_humidity;BME280_pressure;Samples;Min_cycle;Max_cycle;Signal;HPM_P1;HPM_P2
2022/06/05 00:00:29;;;;;;;8.05;7.25;;;;;;;23.09;57.00;99954.22;5014547;28;20076;-79
2022/06/05 00:03:11;;;;;;;7.78;7.07;;;;;;;23.02;57.34;99935.25;5006788;28;20381;-79
2022/06/05 00:05:52;;;;;;;7.88;6.93;;;;;;;23.01;57.25;99939.03;4952900;28;20054;-81
2022/06/05 00:08:37;;;;;;;8.77;7.72;;;;;;;23.04;57.20;99944.00;4983034;28;20043;-79
2022/06/05 00:11:04;;;;;;;7.40;6.70;;;;;;;22.98;57.06;99944.06;5009233;28;20080;-79
2022/06/05 00:13:43;;;;;;;8.07;7.28;;;;;;;22.68;57.84;99949.94;5005346;28;20045;-79
2022/06/05 00:16:14;;;;;;;7.78;6.88;;;;;;;22.59;58.38;99941.19;4999753;28;20064;-86
2022/06/05 00:18:42;;;;;;;8.60;7.80;;;;;;;22.50;58.44;99939.78;5002214;28;20099;-86
2022/06/05 00:21:38;;;;;;;8.63;7.28;;;;;;;22.40;59.18;99937.50;5016134;28;20041;-86
2022/06/05 00:24:05;;;;;;;8.55;7.75;;;;;;;22.38;58.85;99947.69;4897993;28;20582;-86
2022/06/05 00:26:42;;;;;;;8.73;7.05;;;;;;;22.46;59.08;99961.00;4992765;28;20413;-79
2022/06/05 00:29:23;;;;;;;8.57;7.78;;;;;;;22.56;58.67;99960.56;5002036;28;20042;-78
2022/06/05 00:31:56;;;;;;;8.43;7.57;;;;;;;22.69;58.35;99948.88;4944388;28;20057;-79
2022/06/05 00:34:23;;;;;;;9.13;7.57;;;;;;;22.75;57.95;99945.34;4977141;28;20038;-80
2022/06/05 00:36:59;;;;;;;8.18;7.38;;;;;;;22.69;58.55;99959.72;5002422;28;20129;-78
2022/06/05 00:39:47;;;;;;;8.52;7.80;;;;;;;22.43;59.03;99958.72;5007324;28;20110;-87
2022/06/05 00:42:17;;;;;;;9.15;8.35;;;;;;;22.23;58.96;99958.72;4991542;28;20046;-84
2022/06/05 00:44:51;;;;;;;11.23;7.88;;;;;;;22.18;59.46;99966.59;5012651;28;20054;-82
2022/06/05 00:47:20;;;;;;;9.07;8.10;;;;;;;22.18;59.45;99963.91;4983976;28;20069;-87
2022/06/05 00:50:00;;;;;;;11.55;8.63;;;;;;;22.10;59.76;99974.94;4993936;28;20448;-87
2022/06/05 00:52:29;;;;;;;9.90;8.80;;;;;;;22.10;59.45;99974.94;5004647;28;20149;-87
2022/06/05 00:54:57;;;;;;;9.68;8.80;;;;;;;22.28;59.06;99985.97;5012740;28;20042;-86
2022/06/05 00:57:30;;;;;;;9.00;8.10;;;;;;;22.22;59.13;99991.41;5013432;28;20043;-87
2022/06/05 00:59:58;;;;;;;11.63;7.75;;;;;;;22.33;58.78;99999.72;4973777;28;20385;-87
2022/06/05 01:02:25;;;;;;;9.98;7.63;;;;;;;22.45;58.46;100001.81;5016306;28;20034;-79
2022/06/05 01:04:52;;;;;;;10.18;8.23;;;;;;;22.59;58.18;99997.22;4998898;28;20087;-79
2022/06/05 01:07:20;;;;;;;9.05;8.05;;;;;;;22.49;58.24;100003.91;4989458;28;20046;-78
2022/06/05 01:09:50;;;;;;;9.23;8.23;;;;;;;22.62;57.99;100010.31;4978570;28;20046;-79
2022/06/05 01:12:36;;;;;;;9.60;8.20;;;;;;;22.66;58.06;100006.16;4965389;28;20050;-79
2022/06/05 01:15:25;;;;;;;9.23;8.43;;;;;;;22.68;57.71;99996.78;4934848;28;20061;-79
2022/06/05 01:18:13;;;;;;;8.93;7.75;;;;;;;22.71;57.95;100000.94;4917410;28;20049;-79
2022/06/05 01:21:01;;;;;;;9.35;8.45;;;;;;;22.58;58.02;99995.56;4941244;28;20054;-80
2022/06/05 01:24:06;;;;;;;9.68;8.45;;;;;;;22.60;58.06;99983.47;4910029;28;20063;-79
2022/06/05 01:26:40;;;;;;;10.60;8.95;;;;;;;22.63;57.80;99983.06;4871109;28;20051;-79
2022/06/05 01:29:12;;;;;;;9.00;8.20;;;;;;;22.64;57.90;99990.13;4926654;28;20746;-78
2022/06/05 01:31:45;;;;;;;16.85;8.30;;;;;;;22.60;58.13;99980.78;4918194;29;20234;-87
2022/06/05 01:34:43;;;;;;;9.02;8.13;;;;;;;22.58;58.13;99982.84;4911844;29;20047;-87
2022/06/05 01:37:35;;;;;;;9.35;8.30;;;;;;;22.64;58.68;99976.59;4897794;29;20508;-80
2022/06/05 01:40:14;;;;;;;9.70;8.63;;;;;;;22.56;59.09;99965.16;4893331;29;20048;-80
2022/06/05 01:42:44;;;;;;;9.35;8.45;;;;;;;22.57;58.51;99962.25;4921942;28;20051;-81
2022/06/05 01:45:18;;;;;;;9.43;8.45;;;;;;;22.56;58.76;99947.03;4949245;28;20054;-81
2022/06/05 01:47:50;;;;;;;10.38;9.18;;;;;;;22.49;58.51;99949.78;4927043;28;20125;-79
2022/06/05 01:50:21;;;;;;;9.20;7.85;;;;;;;22.51;58.69;99950.38;4964679;28;20042;-79
2022/06/05 01:52:59;;;;;;;9.32;8.40;;;;;;;22.50;58.45;99961.44;4970309;28;20038;-79
2022/06/05 01:55:34;;;;;;;9.50;8.60;;;;;;;22.27;59.01;99968.09;4969754;28;20486;-79
2022/06/05 01:58:04;;;;;;;13.13;9.63;;;;;;;22.36;58.46;99957.88;4954535;28;20402;-79
2022/06/05 02:00:31;;;;;;;11.13;9.40;;;;;;;22.44;58.54;99951.44;4974488;28;20070;-87
2022/06/05 02:03:23;;;;;;;11.50;9.77;;;;;;;22.28;59.07;99950.00;4988813;28;20053;-88
2022/06/05 02:05:58;;;;;;;10.57;9.45;;;;;;;22.03;59.63;99942.50;4964002;28;20522;-77
2022/06/05 02:08:34;;;;;;;11.40;10.35;;;;;;;21.71;60.48;99938.72;5008807;28;20060;-80
2022/06/05 02:11:07;;;;;;;10.43;9.35;;;;;;;21.57;60.81;99928.91;4986528;28;20052;-78
2022/06/05 02:13:34;;;;;;;11.15;10.07;;;;;;;21.54;60.99;99919.34;4961442;28;20054;-80
2022/06/05 02:16:00;;;;;;;10.52;9.60;;;;;;;21.62;60.45;99918.31;4988175;28;20045;-80
2022/06/05 02:18:27;;;;;;;12.02;10.88;;;;;;;21.53;61.08;99909.59;4986537;28;20045;-81
2022/06/05 02:20:54;;;;;;;11.45;10.35;;;;;;;21.72;60.48;99899.00;5005550;28;20382;-80
2022/06/05 02:23:23;;;;;;;14.25;10.35;;;;;;;21.74;60.62;99892.34;4996109;28;20049;-77
2022/06/05 02:25:50;;;;;;;11.50;10.35;;;;;;;21.86;60.41;99879.88;5015148;28;20045;-78
2022/06/05 02:28:18;;;;;;;11.18;10.07;;;;;;;22.02;59.93;99865.09;4967892;28;20066;-78
2022/06/05 02:31:03;;;;;;;14.55;10.40;;;;;;;22.15;59.66;99837.22;4967121;28;20128;-77
2022/06/05 02:33:48;;;;;;;12.80;11.02;;;;;;;22.25;59.41;99810.59;4975167;28;20053;-78
2022/06/05 02:36:41;;;;;;;11.82;10.57;;;;;;;22.31;59.28;99798.94;4971549;28;20045;-78
2022/06/05 02:39:25;;;;;;;13.80;10.20;;;;;;;22.38;58.93;99784.53;4936792;28;20050;-79
2022/06/05 02:42:02;;;;;;;11.68;10.27;;;;;;;22.39;58.96;99761.84;4965475;28;20401;-78
2022/06/05 02:44:40;;;;;;;13.45;11.25;;;;;;;22.38;58.82;99741.25;4968572;28;20049;-78
2022/06/05 02:47:41;;;;;;;11.30;10.20;;;;;;;22.30;58.98;99721.50;5017056;28;20045;-78
2022/06/05 02:50:18;;;;;;;12.57;11.27;;;;;;;22.23;59.08;99728.81;4937987;28;20489;-81
2022/06/05 02:52:45;;;;;;;11.60;10.57;;;;;;;22.18;59.19;99731.31;4981830;28;20053;-79
2022/06/05 02:55:15;;;;;;;15.00;11.75;;;;;;;22.02;59.34;99718.28;4977372;28;20112;-79
2022/06/05 02:57:43;;;;;;;12.55;11.05;;;;;;;21.96;59.44;99713.72;4975034;28;20485;-79
2022/06/05 03:00:18;;;;;;;12.88;11.68;;;;;;;21.74;60.39;99697.75;4959625;28;20141;-80
2022/06/05 03:05:31;;;;;;;13.52;12.20;;;;;;;21.68;60.29;99667.00;4984917;28;20055;-78
2022/06/05 03:07:58;;;;;;;12.18;10.95;;;;;;;21.29;61.21;99662.47;4980835;28;20685;-78
2022/06/05 03:10:25;;;;;;;13.32;11.93;;;;;;;21.27;61.50;99686.19;4981566;28;20047;-81
2022/06/05 03:12:52;;;;;;;13.32;12.00;;;;;;;21.36;61.20;99711.94;4957651;28;20120;-78
2022/06/05 03:15:19;;;;;;;13.93;11.50;;;;;;;21.58;61.03;99725.25;4984471;28;20045;-78
2022/06/05 03:17:46;;;;;;;13.00;11.80;;;;;;;21.72;60.37;99709.81;4991245;28;20042;-78
2022/06/05 03:20:14;;;;;;;12.48;11.20;;;;;;;21.72;60.31;99694.44;5001936;28;21213;-78
2022/06/05 03:22:41;;;;;;;14.63;11.50;;;;;;;21.78;60.20;99707.13;4966902;28;20046;-78
2022/06/05 03:25:08;;;;;;;12.80;11.60;;;;;;;21.82;60.17;99724.56;4950146;28;20061;-86
2022/06/05 03:27:35;;;;;;;12.40;11.18;;;;;;;21.91;60.52;99733.28;4989344;28;20073;-85
2022/06/05 03:30:02;;;;;;;13.25;12.05;;;;;;;21.85;59.93;99737.69;5014216;28;20045;-87
2022/06/05 03:32:30;;;;;;;13.05;11.73;;;;;;;21.84;59.89;99735.16;4992520;28;20042;-85
2022/06/05 03:34:56;;;;;;;12.68;11.52;;;;;;;21.73;60.15;99757.41;4998361;28;20049;-84
2022/06/05 03:37:23;;;;;;;15.30;12.02;;;;;;;21.61;60.33;99760.78;4999111;28;20496;-85
2022/06/05 03:39:50;;;;;;;13.48;12.18;;;;;;;21.58;60.30;99754.97;4989726;28;20132;-85
2022/06/05 03:42:17;;;;;;;12.15;11.02;;;;;;;21.49;60.70;99748.09;4996426;28;20053;-79
2022/06/05 03:44:43;;;;;;;16.25;10.82;;;;;;;21.39;61.11;99760.16;4974986;28;20124;-78
2022/06/05 03:47:12;;;;;;;12.63;11.30;;;;;;;21.59;61.35;99767.44;5016857;28;20490;-84
2022/06/05 03:49:39;;;;;;;11.68;10.52;;;;;;;21.84;60.89;99773.84;4971978;28;20121;-85
2022/06/05 03:52:07;;;;;;;11.27;10.27;;;;;;;22.02;59.87;99777.75;4987906;28;20520;-85
2022/06/05 03:54:34;;;;;;;11.77;10.68;;;;;;;22.08;59.25;99788.56;5012758;28;20049;-88
2022/06/05 03:57:02;;;;;;;12.90;11.10;;;;;;;21.94;59.13;99792.34;4991063;28;20092;-85
2022/06/05 03:59:55;;;;;;;12.63;11.43;;;;;;;21.62;59.99;99788.63;4976141;28;20077;-78
2022/06/05 04:02:25;;;;;;;11.32;10.32;;;;;;;21.59;59.94;99778.22;4983129;28;20100;-78
2022/06/05 04:04:52;;;;;;;12.07;10.98;;;;;;;21.53;60.16;99776.38;4982468;28;20041;-78
2022/06/05 04:07:19;;;;;;;11.23;10.23;;;;;;;21.51;60.37;99781.16;5008362;28;20049;-79
2022/06/05 04:09:46;;;;;;;11.57;10.52;;;;;;;21.34;60.49;99794.19;4994231;28;20152;-78
2022/06/05 04:12:13;;;;;;;11.32;10.23;;;;;;;21.30;60.59;99804.59;4985364;28;20115;-78
2022/06/05 04:14:40;;;;;;;12.27;10.73;;;;;;;21.22;60.68;99829.09;5006701;28;20045;-78
2022/06/05 04:17:06;;;;;;;11.40;10.05;;;;;;;21.29;60.74;99846.13;4987084;28;20056;-80
2022/06/05 04:19:33;;;;;;;11.43;10.38;;;;;;;21.45;60.71;99871.97;4999454;28;20053;-79
2022/06/05 04:22:00;;;;;;;11.63;10.32;;;;;;;21.60;60.52;99906.88;4991896;28;20045;-78
2022/06/05 04:24:27;;;;;;;10.95;9.85;;;;;;;21.71;60.26;99937.91;4984527;28;20042;-78
2022/06/05 04:26:53;;;;;;;10.95;9.82;;;;;;;21.82;60.63;99973.25;5001504;28;20490;-79
2022/06/05 04:29:20;;;;;;;11.52;10.32;;;;;;;21.86;60.16;99971.81;5004117;28;20037;-79
2022/06/05 04:31:48;;;;;;;11.88;10.75;;;;;;;21.84;60.72;99970.34;4987753;28;20054;-79
2022/06/05 04:34:18;;;;;;;10.50;9.48;;;;;;;21.89;60.77;99955.16;4999088;28;20045;-82
2022/06/05 04:36:45;;;;;;;12.00;10.65;;;;;;;21.91;60.86;99936.03;5001716;28;20513;-80
2022/06/05 04:39:13;;;;;;;11.98;10.73;;;;;;;21.92;60.87;99920.66;4983828;28;20052;-87
2022/06/05 04:41:40;;;;;;;12.82;9.68;;;;;;;21.93;61.46;99925.00;5019213;28;20048;-87
2022/06/05 04:44:08;;;;;;;11.73;10.48;;;;;;;21.93;61.83;99915.03;5007615;28;20046;-87
2022/06/05 04:46:35;;;;;;;11.93;10.15;;;;;;;21.82;61.36;99905.66;5011572;28;21093;-87
2022/06/05 04:49:04;;;;;;;11.55;10.55;;;;;;;21.81;61.78;99903.19;4991871;28;20052;-87
2022/06/05 04:51:30;;;;;;;13.65;11.13;;;;;;;21.76;62.20;99876.78;4988695;28;20049;-87
2022/06/05 04:53:57;;;;;;;15.18;10.98;;;;;;;21.73;62.45;99868.22;4993136;28;20134;-87
2022/06/05 04:56:25;;;;;;;12.07;10.25;;;;;;;21.67;62.48;99861.78;4986038;28;20050;-84
2022/06/05 04:58:53;;;;;;;12.35;10.68;;;;;;;21.59;62.82;99865.53;5020520;28;20048;-83
2022/06/05 05:01:22;;;;;;;13.27;10.68;;;;;;;21.48;62.95;99854.53;4985537;28;20114;-78
2022/06/05 05:03:52;;;;;;;12.55;11.23;;;;;;;21.32;63.71;99856.56;5002769;28;20048;-78
2022/06/05 05:06:19;;;;;;;11.38;10.27;;;;;;;21.24;63.72;99854.88;4997340;28;20053;-78
2022/06/05 05:08:46;;;;;;;12.85;11.60;;;;;;;21.18;64.10;99849.44;4997563;28;20552;-78
2022/06/05 05:11:12;;;;;;;12.50;11.32;;;;;;;21.08;64.05;99860.63;4981675;28;20041;-78
2022/06/05 05:13:39;;;;;;;12.85;11.32;;;;;;;20.90;64.82;99852.28;4984897;28;20042;-78
2022/06/05 05:16:08;;;;;;;12.43;11.10;;;;;;;20.86;64.83;99862.63;4992286;28;20041;-78
2022/06/05 05:18:35;;;;;;;12.63;11.43;;;;;;;20.60;65.73;99861.50;5007230;28;20037;-78
2022/06/05 05:21:21;;;;;;;13.95;12.23;;;;;;;20.56;66.64;99881.00;4987716;28;20070;-78
2022/06/05 05:23:48;;;;;;;14.32;12.63;;;;;;;20.77;65.56;99880.88;4989140;28;20496;-83
2022/06/05 05:26:16;;;;;;;13.68;12.23;;;;;;;20.93;65.46;99887.78;5001516;28;20045;-83
2022/06/05 05:28:44;;;;;;;13.23;12.00;;;;;;;21.07;64.45;99891.38;4997329;28;20632;-82
2022/06/05 05:31:17;;;;;;;13.05;11.75;;;;;;;21.18;64.63;99879.16;4998327;28;20049;-82
2022/06/05 05:33:44;;;;;;;14.65;11.30;;;;;;;21.23;64.10;99876.66;4990339;28;20049;-82
2022/06/05 05:36:11;;;;;;;15.40;11.18;;;;;;;21.19;63.63;99886.19;5006867;28;20137;-83
2022/06/05 05:38:38;;;;;;;13.65;12.25;;;;;;;21.13;63.98;99897.84;5020337;28;20144;-83
2022/06/05 05:43:50;;;;;;;16.23;12.00;;;;;;;21.29;65.07;99931.72;4987971;28;20046;-79
2022/06/05 05:46:17;;;;;;;13.95;12.60;;;;;;;21.35;64.94;99920.13;4996561;28;20406;-80
2022/06/05 05:48:44;;;;;;;14.85;13.27;;;;;;;21.43;64.94;99906.47;4990277;28;20049;-80
2022/06/05 05:51:11;;;;;;;14.02;12.52;;;;;;;;;;4960519;28;20121;-82
2022/06/05 05:53:38;;;;;;;14.60;12.57;;;;;;;21.50;65.11;99879.44;4992487;28;20057;-78
2022/06/05 05:56:10;;;;;;;14.18;12.77;;;;;;;21.51;65.03;99870.31;4978112;28;20068;-78
2022/06/05 05:58:38;;;;;;;15.20;12.23;;;;;;;21.51;64.94;99863.03;4983062;28;20045;-80
2022/06/05 06:01:07;;;;;;;13.52;12.23;;;;;;;21.50;64.90;99849.72;4991917;28;20065;-81
2022/06/05 06:03:34;;;;;;;14.30;12.90;;;;;;;21.50;64.85;99828.09;4985040;28;20572;-80
2022/06/05 06:06:01;;;;;;;13.43;12.23;;;;;;;21.50;64.77;99804.66;4990376;28;20491;-79
2022/06/05 06:08:28;;;;;;;15.73;12.93;;;;;;;21.50;64.79;99799.25;4993216;28;20378;-80
2022/06/05 06:10:55;;;;;;;15.68;11.98;;;;;;;21.51;65.10;99800.06;4988081;28;20047;-79
2022/06/05 06:13:22;;;;;;;15.82;13.30;;;;;;;21.51;65.05;99811.69;4989813;28;20056;-80
2022/06/05 06:15:49;;;;;;;13.43;12.10;;;;;;;21.52;64.93;99793.63;4964739;28;20061;-78
2022/06/05 06:18:20;;;;;;;13.75;12.43;;;;;;;21.53;64.57;99770.97;4975473;28;20043;-78
2022/06/05 06:20:47;;;;;;;12.80;11.50;;;;;;;21.50;63.67;99736.25;5005046;28;20116;-78
2022/06/05 06:23:14;;;;;;;13.25;11.98;;;;;;;21.30;64.61;99687.63;5010688;28;20041;-78
2022/06/05 06:25:41;;;;;;;14.00;12.50;;;;;;;20.97;65.37;99683.91;5002608;28;20045;-78
2022/06/05 06:28:08;;;;;;;14.38;12.68;;;;;;;20.58;66.57;99703.56;4986828;28;20127;-77
2022/06/05 06:30:37;;;;;;;14.68;12.32;;;;;;;20.65;66.53;99717.91;4980826;28;20446;-78
2022/06/05 06:33:04;;;;;;;25.45;13.68;;;;;;;20.78;66.76;99736.81;5016979;28;20045;-82
2022/06/05 06:35:30;;;;;;;14.88;13.07;;;;;;;20.94;66.46;99741.00;5013755;28;20144;-81
2022/06/05 06:37:57;;;;;;;13.90;12.50;;;;;;;21.05;66.18;99781.94;4983825;28;20481;-82
2022/06/05 06:40:24;;;;;;;14.73;12.80;;;;;;;21.15;66.22;99796.69;4985393;28;20044;-82
2022/06/05 06:42:50;;;;;;;12.35;10.90;;;;;;;21.27;65.59;99812.25;5016060;28;20053;-84
2022/06/05 06:45:19;;;;;;;14.77;12.65;;;;;;;21.31;64.80;99818.94;5015285;28;20121;-82
2022/06/05 06:47:46;;;;;;;15.43;12.40;;;;;;;21.33;65.00;99820.38;5010152;28;20049;-81
2022/06/05 06:50:12;;;;;;;13.23;11.85;;;;;;;21.37;64.80;99781.13;5010707;28;20057;-81
2022/06/05 06:52:39;;;;;;;13.43;12.02;;;;;;;21.39;64.94;99773.66;5018330;28;20042;-83
2022/06/05 06:55:07;;;;;;;13.40;12.02;;;;;;;21.40;65.47;99775.34;5005268;28;20037;-82
2022/06/05 06:57:34;;;;;;;13.43;12.00;;;;;;;21.40;65.47;99798.81;4989052;28;20042;-81
2022/06/05 07:00:00;;;;;;;13.88;12.57;;;;;;;21.41;65.38;99812.09;4995498;28;20045;-82
2022/06/05 07:02:27;;;;;;;14.13;12.65;;;;;;;21.42;65.27;99839.94;5001709;28;20049;-81
2022/06/05 07:04:54;;;;;;;13.63;12.23;;;;;;;21.40;65.12;99844.75;4999075;28;20045;-81
2022/06/05 07:07:21;;;;;;;13.77;11.52;;;;;;;21.42;65.31;99842.66;5003555;28;20049;-82
2022/06/05 07:09:48;;;;;;;12.65;11.50;;;;;;;21.41;65.03;99824.78;5010265;28;20045;-76
2022/06/05 07:12:17;;;;;;;13.05;11.70;;;;;;;21.40;65.23;99806.94;4990964;28;20053;-77
2022/06/05 07:14:46;;;;;;;12.82;11.63;;;;;;;21.36;65.27;99773.22;5003475;28;20108;-76
2022/06/05 07:17:14;;;;;;;12.77;11.48;;;;;;;21.35;64.85;99766.16;4986980;28;20133;-76
2022/06/05 07:19:41;;;;;;;13.70;12.43;;;;;;;21.32;64.82;99770.13;4987790;28;20049;-76
2022/06/05 07:22:07;;;;;;;14.20;12.70;;;;;;;21.31;65.54;99768.44;4994040;28;20488;-78
2022/06/05 07:24:34;;;;;;;13.43;12.15;;;;;;;21.31;65.45;99763.03;5015344;28;20494;-82
2022/06/05 07:27:01;;;;;;;14.15;12.77;;;;;;;21.30;65.49;99739.78;4997243;28;20052;-82
2022/06/05 07:29:28;;;;;;;16.35;12.95;;;;;;;21.29;64.94;99715.66;5001680;28;20046;-82
2022/06/05 07:36:31;;;;;;;14.40;11.93;;;;;;;21.25;65.14;99720.66;4978517;28;20497;-82
2022/06/05 07:38:59;;;;;;;13.02;11.57;;;;;;;21.27;64.46;99699.69;4975088;28;20116;-81
2022/06/05 07:41:29;;;;;;;16.13;11.90;;;;;;;21.24;64.55;99678.47;4982307;28;20453;-82
2022/06/05 07:43:57;;;;;;;12.77;11.52;;;;;;;21.26;64.56;99668.31;4969125;28;20046;-82
2022/06/05 07:46:26;;;;;;;18.35;11.95;;;;;;;21.24;64.91;99667.69;4967199;28;20117;-82
2022/06/05 07:48:52;;;;;;;13.68;12.25;;;;;;;21.24;64.97;99646.94;4956746;28;20691;-81
2022/06/05 07:54:27;;;;;;;13.50;11.90;;;;;;;21.22;65.45;99662.50;4977429;28;20045;-82
2022/06/05 07:57:20;;;;;;;12.25;11.05;;;;;;;21.16;65.32;99655.22;4970617;28;20056;-81
2022/06/05 07:59:49;;;;;;;12.10;11.00;;;;;;;21.17;65.00;99645.28;4970043;28;20054;-81
2022/06/05 08:02:19;;;;;;;13.55;11.63;;;;;;;21.07;65.00;99640.28;4980208;28;20046;-82
2022/06/05 08:04:49;;;;;;;14.98;12.18;;;;;;;21.10;65.41;99623.66;4998208;28;20045;-82
2022/06/05 08:07:19;;;;;;;13.98;11.98;;;;;;;21.12;65.59;99631.56;4970737;28;20121;-82
2022/06/05 08:09:46;;;;;;;12.98;11.70;;;;;;;21.12;65.74;99647.78;4980660;28;20070;-83
2022/06/05 08:12:15;;;;;;;16.02;12.02;;;;;;;21.12;65.89;99661.28;4979054;28;20450;-81
2022/06/05 08:14:43;;;;;;;13.52;11.50;;;;;;;21.14;65.62;99662.72;5014632;28;20046;-81
2022/06/05 08:17:14;;;;;;;13.20;11.57;;;;;;;21.14;65.77;99640.28;4996806;28;20100;-84
2022/06/05 08:19:41;;;;;;;11.65;10.50;;;;;;;21.12;65.85;99645.91;4977548;28;20053;-84
2022/06/05 08:22:10;;;;;;;12.65;9.55;;;;;;;21.08;65.42;99639.25;5021865;28;20053;-86
2022/06/05 08:24:37;;;;;;;10.88;9.48;;;;;;;21.05;65.39;99622.66;4970102;28;20060;-85
2022/06/05 08:27:12;;;;;;;11.93;10.73;;;;;;;21.02;65.42;99632.00;4985683;28;20084;-85
2022/06/05 08:29:39;;;;;;;11.93;10.65;;;;;;;21.06;65.45;99622.41;4970893;28;20119;-85
2022/06/05 08:32:07;;;;;;;11.15;10.02;;;;;;;21.11;66.03;99603.72;4986288;28;20401;-83
2022/06/05 08:34:34;;;;;;;12.23;10.48;;;;;;;21.07;66.06;99601.69;4986526;28;20478;-85
2022/06/05 08:42:59;;;;;;;13.15;11.80;;;;;;;20.47;67.36;99594.38;4976707;28;20042;-84
2022/06/05 08:45:38;;;;;;;13.13;10.68;;;;;;;20.32;67.99;99586.47;4981628;28;20073;-83
2022/06/05 08:48:12;;;;;;;13.20;11.88;;;;;;;20.30;67.59;99588.56;4996464;28;20046;-82
2022/06/05 08:50:53;;;;;;;12.45;11.07;;;;;;;20.39;67.82;99581.91;4947964;28;20057;-82
2022/06/05 08:53:50;;;;;;;13.35;11.35;;;;;;;20.54;67.13;99589.84;5003691;28;20048;-83
2022/06/05 08:56:42;;;;;;;12.25;10.95;;;;;;;20.44;67.95;99599.34;4923616;28;20068;-83
2022/06/05 08:59:51;;;;;;;12.60;11.30;;;;;;;20.58;67.34;99596.50;4962965;28;20446;-83
2022/06/05 09:02:42;;;;;;;12.27;11.05;;;;;;;20.76;66.78;99608.53;4961245;28;20048;-88
2022/06/05 09:05:31;;;;;;;12.07;10.82;;;;;;;20.86;67.58;99605.41;4982201;28;20046;-87
2022/06/05 09:08:03;;;;;;;12.57;10.80;;;;;;;21.00;67.51;99612.47;4960778;28;20045;-80
2022/06/05 09:10:39;;;;;;;12.88;10.95;;;;;;;21.08;67.74;99614.13;4979029;28;20056;-82
2022/06/05 09:13:17;;;;;;;12.02;10.80;;;;;;;21.15;68.21;99612.25;4996078;28;20042;-81
2022/06/05 09:15:59;;;;;;;12.60;11.30;;;;;;;21.24;68.12;99616.38;5014495;28;20560;-80
2022/06/05 09:18:35;;;;;;;12.20;10.95;;;;;;;21.32;67.36;99612.63;4952990;28;20076;-82
2022/06/05 09:21:09;;;;;;;14.27;12.75;;;;;;;21.36;67.01;99616.56;4989306;28;20054;-81
2022/06/05 09:23:41;;;;;;;13.15;11.20;;;;;;;21.35;67.37;99625.72;4982309;28;20049;-81
2022/06/05 09:26:32;;;;;;;13.60;10.60;;;;;;;21.39;67.16;99633.19;5002992;28;20381;-81
2022/06/05 09:29:10;;;;;;;12.13;10.48;;;;;;;21.44;67.06;99633.41;4959988;28;20053;-80
2022/06/05 09:31:50;;;;;;;11.82;10.63;;;;;;;21.41;67.89;99638.41;4981147;28;20085;-80
2022/06/05 09:34:27;;;;;;;12.63;10.45;;;;;;;21.43;66.84;99639.03;4980217;28;20482;-80
2022/06/05 09:37:08;;;;;;;11.55;9.68;;;;;;;21.43;66.51;99633.63;4994167;28;20060;-81
2022/06/05 09:39:42;;;;;;;10.95;9.77;;;;;;;21.54;66.37;99643.75;4966267;28;20056;-80
2022/06/05 09:42:22;;;;;;;12.20;9.07;;;;;;;21.62;66.26;99640.81;4996984;28;20489;-81
2022/06/05 09:45:04;;;;;;;12.18;9.40;;;;;;;21.70;67.11;99639.75;4981541;28;20044;-85
2022/06/05 09:47:52;;;;;;;10.40;9.00;;;;;;;21.85;66.48;99637.66;5003052;28;20037;-86
2022/06/05 09:50:27;;;;;;;9.43;8.43;;;;;;;21.94;66.48;99648.22;4937775;28;21022;-85
2022/06/05 09:52:55;;;;;;;11.07;9.02;;;;;;;22.01;66.99;99655.25;5002427;28;20140;-85
2022/06/05 09:55:39;;;;;;;10.35;9.20;;;;;;;22.06;67.02;99660.84;4987416;28;20063;-81
2022/06/05 09:58:25;;;;;;;13.20;9.23;;;;;;;22.11;68.58;99658.34;4968303;28;20050;-82
2022/06/05 10:00:56;;;;;;;11.10;8.40;;;;;;;22.21;67.95;99652.50;4988772;28;20047;-83
2022/06/05 10:03:29;;;;;;;12.05;8.32;;;;;;;22.27;68.17;99646.22;4969492;28;20050;-82
2022/06/05 10:06:14;;;;;;;8.85;7.95;;;;;;;22.24;68.97;99649.34;4953811;28;20574;-81
2022/06/05 10:08:45;;;;;;;10.18;8.65;;;;;;;22.31;68.80;99652.00;4950991;28;20050;-82
2022/06/05 10:11:23;;;;;;;9.48;7.63;;;;;;;22.33;69.44;99648.03;4979994;28;20390;-83
2022/06/05 10:14:07;;;;;;;8.70;6.18;;;;;;;22.43;68.36;99652.97;5011038;28;20053;-83
2022/06/05 10:16:40;;;;;;;6.97;6.28;;;;;;;22.57;68.60;99659.16;4969565;28;20038;-84
2022/06/05 10:19:10;;;;;;;7.32;6.40;;;;;;;22.67;69.57;99650.53;5023892;28;20389;-80
2022/06/05 10:34:24;;;;;;;7.45;5.32;;;;;;;22.92;68.68;99651.41;4977719;28;20056;-83
2022/06/05 10:37:09;;;;;;;7.43;5.00;;;;;;;23.04;68.76;99639.88;4995466;28;20444;-85
2022/06/05 10:39:55;;;;;;;6.72;4.38;;;;;;;23.23;68.45;99662.38;4999498;28;20470;-84
2022/06/05 10:42:31;;;;;;;5.60;4.28;;;;;;;23.25;67.89;99660.28;4993208;28;20042;-84
2022/06/05 10:45:12;;;;;;;5.53;4.55;;;;;;;23.26;67.86;99661.97;5022535;28;20386;-86
2022/06/05 10:47:48;;;;;;;7.13;5.18;;;;;;;23.32;67.70;99659.19;5029098;28;20055;-84
2022/06/05 10:50:18;;;;;;;7.95;4.10;;;;;;;23.34;67.91;99659.78;5015057;28;20100;-80
2022/06/05 10:53:11;;;;;;;5.07;4.57;;;;;;;23.32;67.93;99659.19;5000695;28;20143;-79
2022/06/05 10:55:55;;;;;;;8.45;4.28;;;;;;;23.44;67.89;99664.69;4972916;28;20050;-79
2022/06/05 10:58:36;;;;;;;3.92;3.53;;;;;;;23.44;67.47;99650.34;4997227;28;20048;-82
2022/06/05 11:01:12;;;;;;;4.68;3.33;;;;;;;23.45;67.13;99639.25;4964058;28;20057;-82
2022/06/05 11:03:56;;;;;;;5.90;3.40;;;;;;;23.52;66.26;99637.31;5004742;28;20049;-83
2022/06/05 11:07:03;;;;;;;7.18;4.50;;;;;;;23.52;66.37;99640.00;4956764;28;20044;-83
2022/06/05 11:09:39;;;;;;;9.55;4.07;;;;;;;23.72;65.76;99638.97;4913287;29;20339;-85
2022/06/05 11:15:58;;;;;;;8.63;3.70;;;;;;;23.57;64.97;99626.59;4894225;29;20051;-86
2022/06/05 11:18:38;;;;;;;8.07;3.72;;;;;;;23.68;63.97;99624.19;4877577;28;20598;-84
2022/06/05 11:21:06;;;;;;;8.73;2.90;;;;;;;23.73;65.46;99635.22;4930867;28;20045;-82
2022/06/05 11:23:35;;;;;;;5.32;3.20;;;;;;;23.77;64.85;99626.41;4980973;28;20046;-82
2022/06/05 11:26:20;;;;;;;3.17;2.67;;;;;;;23.75;64.90;99625.81;4986348;28;20042;-81
2022/06/05 11:28:52;;;;;;;7.43;3.10;;;;;;;23.83;64.14;99624.66;4983978;28;20057;-84
2022/06/05 11:31:42;;;;;;;4.18;3.70;;;;;;;23.85;64.26;99628.00;4982135;28;20525;-82
2022/06/05 11:34:29;;;;;;;5.28;2.50;;;;;;;23.84;64.08;99620.91;4966971;28;20096;-81
2022/06/05 11:37:29;;;;;;;7.43;3.55;;;;;;;23.85;63.37;99622.56;4975577;28;20132;-82
2022/06/05 11:40:05;;;;;;;5.75;3.05;;;;;;;23.88;63.70;99619.38;4960204;28;21047;-78
2022/06/05 11:42:37;;;;;;;4.82;2.70;;;;;;;23.87;63.57;99620.47;5000469;28;20045;-80
2022/06/05 11:45:04;;;;;;;5.22;2.83;;;;;;;23.90;64.54;99619.19;5021824;28;20405;-80
2022/06/05 11:47:44;;;;;;;5.15;2.53;;;;;;;23.90;64.09;99611.84;5015484;28;20064;-81
2022/06/05 11:50:25;;;;;;;6.03;2.67;;;;;;;23.90;63.77;99611.84;4940130;28;20049;-82
2022/06/05 11:53:07;;;;;;;4.53;3.13;;;;;;;24.00;64.72;99614.84;5011729;28;20041;-80
2022/06/05 11:55:38;;;;;;;5.72;2.97;;;;;;;23.98;64.29;99619.69;4987658;28;20053;-79
2022/06/05 11:58:19;;;;;;;8.32;3.25;;;;;;;23.96;63.89;99618.25;5029255;28;21022;-82
2022/06/05 12:00:52;;;;;;;5.05;2.83;;;;;;;23.99;64.21;99615.06;4959437;28;20041;-79
2022/06/05 12:03:58;;;;;;;6.70;2.80;;;;;;;23.93;65.08;99611.41;5033434;28;20084;-79
2022/06/05 12:06:38;;;;;;;2.55;2.35;;;;;;;23.97;64.47;99604.47;4959214;28;20045;-80
2022/06/05 12:09:15;;;;;;;5.15;2.83;;;;;;;24.00;64.76;99590.44;4985482;28;20053;-79
2022/06/05 12:12:04;;;;;;;6.43;3.00;;;;;;;24.07;64.15;99594.94;5003104;28;20049;-79
2022/06/05 12:14:36;;;;;;;6.43;2.78;;;;;;;24.04;64.64;99588.09;4973299;28;20068;-79
2022/06/05 12:17:14;;;;;;;3.33;2.58;;;;;;;24.07;64.55;99576.81;4963194;28;20551;-79
2022/06/05 12:20:00;;;;;;;4.13;3.10;;;;;;;24.05;64.24;99579.72;4971261;28;20048;-78
2022/06/05 12:22:54;;;;;;;4.20;3.15;;;;;;;24.13;64.67;99569.63;4981880;28;20053;-79
2022/06/05 12:25:41;;;;;;;7.05;3.30;;;;;;;24.19;64.36;99569.50;4944791;28;20073;-83
2022/06/05 12:28:28;;;;;;;4.95;3.25;;;;;;;24.13;64.01;99575.06;4967833;28;20042;-77